KBYI/BYI METAR and TAF weather

Enter ICAO airport designator
Station Type Date Time Source
KBYI METAR 2021/09/23 22:53 UTC NOAA

KBYI 232253Z AUTO 27010KT 10SM CLR 21/05 A3020 RMK AO2 SLP195 T02110050


Station Type Date Time Source
KBYI Decoded METAR 2021/09/23 22:53 UTC NOAA

BURLEY MUNICIPAL AIRPORT, ID, United States (KBYI) 42-33N 113-46W 1264M
Sep 23, 2021 - 06:53 PM EDT / 2021.09.23 2253 UTC
Wind: from the W (270 degrees) at 12 MPH (10 KT):0
Visibility: 10 mile(s):0
Sky conditions: clear
Temperature: 70.0 F (21.1 C)
Dew Point: 41.0 F (5.0 C)
Relative Humidity: 34%
Pressure (altimeter): 30.2 in. Hg (1022 hPa)
ob: KBYI 232253Z AUTO 27010KT 10SM CLR 21/05 A3020 RMK AO2 SLP195 T02110050
cycle: 23

Station Type Date Time Source
KBYI TAF 2021/09/23 21:34 UTC NOAA

TAF
AMD KBYI 232032Z 2321/2418 27010G20KT P6SM FEW040
FM240000 28008KT P6SM SKC
FM240400 23006KT P6SM SKC
FM241100 VRB03KT P6SM SKC
FM241600 04006KT P6SM SKC

Example: see airport list